NCAR-RAP Real-Time Weather Data

Output produced by METARs form (12 August 2020  18:20 UTC)
found at http://weather.rap.ucar.edu/surface/
 
KTLH 121753Z 00000KT 10SM FEW030 SCT060 SCT250 31/23 A3003 RMK AO2 SLP167 T03110233 10317 20228 58010
KTLH 121653Z VRB03KT 10SM SCT030 SCT250 31/22 A3005 RMK AO2 SLP173 T03060222
KTLH 121553Z 00000KT 10SM FEW028 FEW040 SCT200 29/22 A3006 RMK AO2 SLP177 CB DSNT SE T02940222
KTLH 121453Z 00000KT 10SM FEW045 FEW160 SCT250 28/22 A3006 RMK AO2 SLP177 T02780222 53006
KTLH 121353Z 05004KT 10SM FEW035CB SCT250 27/23 A3004 RMK AO2 SLP173 CB S MOV STNRY T02670233
KTLH 121253Z 00000KT 10SM FEW002 FEW040CB SCT180 23/23 A3004 RMK AO2 SLP173 CB SW MOV E T02330233
KTLH 121243Z 00000KT 9SM FEW002 FEW040CB SCT200 23/23 A3004 RMK AO2 VIS LWR W CB SW MOV E T02280228
KTLH 121153Z 00000KT 1/2SM FG OVC002 23/23 A3004 RMK AO2 SLP170 70155 T02280228 10228 20217 53014
KTLH 121150Z 00000KT 1/2SM FG OVC002 23/23 A3004 RMK AO2
KTLH 121120Z 00000KT 1/4SM FG VV002 22/22 A3002 RMK AO2 T02220222
KTLH 121053Z 00000KT 1/2SM FG BKN002 22/22 A3002 RMK AO2 SLP165 T02220222
KTLH 121012Z 00000KT 1/2SM FG VV001 22/22 A3001 RMK AO2 T02220222
KTLH 120953Z 00000KT 1/4SM FG VV001 22/22 A3001 RMK AO2 SLP160 T02220222
KTLH 120853Z AUTO 00000KT 1/4SM FG VV001 23/23 A3000 RMK AO2 SLP156 T02280228 58002 $
KTLH 120828Z AUTO 00000KT 1/4SM FG VV001 22/22 A3000 RMK AO2 T02220222 $
KTLH 120820Z AUTO 00000KT 1/4SM FG VV002 22/22 A3000 RMK AO2 T02220222 $
KTLH 120753Z AUTO 00000KT 1/2SM FG VV002 22/22 A3000 RMK AO2 SLP157 T02220222 $
KTLH 120742Z AUTO 00000KT 3/4SM BR VV002 22/22 A3000 RMK AO2 T02220222 $
KTLH 120737Z AUTO 00000KT 2 1/2SM BR BKN002 22/22 A3000 RMK AO2 T02220222 $
KTLH 120702Z AUTO 00000KT 8SM FEW002 23/23 A3000 RMK AO2 T02280228 $
KTLH 120653Z AUTO 12004KT 9SM CLR 23/23 A3000 RMK AO2 SLP158 T02280228 $
KTLH 120553Z AUTO 00000KT 10SM CLR 23/23 A3000 RMK AO2 SLP159 T02280228 10244 20228 58007 $
KTLH 120453Z AUTO 24003KT 10SM FEW002 SCT100 23/23 A3002 RMK AO2 SLP163 T02330233 403280217 $
KTLH 120353Z AUTO 00000KT 10SM CLR 24/24 A3002 RMK AO2 SLP165 T02390239 $
KTLH 120253Z 00000KT 10SM FEW080 24/24 A3002 RMK AO2 SLP166 T02390239 50011 $
KTLH 120153Z 00000KT 10SM FEW050 FEW110 24/24 A3003 RMK AO2 SLP168 T02440239 $
KTLH 120053Z 32004KT 10SM FEW050 FEW110 24/24 A3002 RMK AO2 SLP165 T02440244 $
KTLH 112353Z 00000KT 10SM FEW060 SCT100 24/24 A2999 RMK AO2 SLP154 60132 T02390239 10244 20217 56008 $
KTLH 112253Z 31003KT 10SM FEW040 SCT100 24/24 A3000 RMK AO2 TSE09 SLP157 T02390239 $
KTLH 112210Z 30004KT 10SM SCT045 BKN100 24/24 A2998 RMK AO2 TSE09 T02390239 $
KTLH 112153Z COR 00000KT 10SM TS FEW035CB OVC110 24/ A2999 RMK AO2 RAE49 SLP152 OCNL LTGIC E-SE TS E-SE MOV SE P0002 T02390239 $
KTLH 112053Z 17003KT 10SM -TSRA SCT038CB BKN110 23/23 A3001 RMK AO2 LTG DSNT NE AND SE RAB15 TSB44 SLP163 OCNL LTGIC E-SE TS E-SE MOV SE P0002 60130 T02330233 55006 $
KTLH 112045Z 00000KT 10SM -TSRA SCT038CB BKN110 23/23 A3002 RMK AO2 LTG DSNT NE-SE RAB15 TSB44 OCNL LTGIC E-SE TS E-SE MOV SE P0002 T02330233 $
KTLH 111953Z 00000KT 10SM FEW032 SCT110 23/23 A3001 RMK AO2 LTG DSNT ALQDS RAE03 TSE47E51 SLP160 P0000 T02280228 $
KTLH 111853Z 19005KT 10SM -TSRA FEW032CB SCT110 22/22 A3002 RMK AO2 PK WND 28048/1759 LTG DSNT ALQDS SLP163 OCNL LTGIC NE-SE TS NE-SE MOV E P0128 T02220222 $
KTLH 111832Z 13008KT 4SM -TSRA BKN032CB OVC045 22/22 A3003 RMK AO2 PK WND 28048/1759 LTG DSNT ALQDS FRQ LTGICCG OHD-NE-SE TS OHD-NE-SE MOV SE P0127 T02170217 $
KTLH 111827Z 15007KT 1 1/4SM TSRA BR BKN013 BKN032CB OVC045 22/22 A3003 RMK AO2 PK WND 28048/1759 LTG DSNT ALQDS FRQ LTGICCG OHD-E-SE TS OHD-E-SE MOV SE P0124 T02170217 $
KTLH 111819Z 16010G21KT 1/2SM TSRA FG BKN013 BKN032CB OVC055 22/22 A3004 RMK AO2 PK WND 28048/1759 LTG DSNT ALQDS FRQ LTGICCG OHD-SE-S TS OHD-SE-S MOV SE P0101 T02170217 $
KTLH 111811Z 31016G36KT 1/4SM +TSRA FG BKN011 BKN028CB OVC047 23/23 A3006 RMK AO2 PK WND 28048/1759 LTG DSNT ALQDS FRQ LTGICCG OHD-SW-NW TS OHD-SW-NW MOV SE P0059 T02330233 $
KTLH 111808Z 25021G48KT 220V280 1/4SM +TSRA BR SCT028CB BKN065 BKN180 23/23 A3004
KTLH 111802Z 24026G48KT 1/2SM +TSRA BR SCT028CB BKN065 BKN180 23/23 A3005 RMK AO2 PK WND 28048/1759 LTG DSNT ALQDS FRQ LTGICCG OHD-SW-NW TS OHD-SW-NW MOV SE P0004 T02330233 $
KTLH 111748Z 27021G28KT 1 1/2SM TSRA BR SCT028CB BKN065 BKN180 25/24 A3003 RMK AO2 PK WND 27028/1747 WSHFT 1717 LTG DSNT S-NW RAB1657E06B36 FRQ LTGICCG OHD-SW-NW TS OHD-SW-NW MOV SE P0017 $
KTLH 111736Z 22008KT 5SM -TSRA SCT028CB BKN065 BKN180 28/23 A3001 RMK AO2 WSHFT 1717 LTG DSNT S-NW RAB1657E06B36 FRQ LTGICCG OHD-SW-NW TS OHD-SW-NW MOV SE P0000 T02830228
KTLH 111653Z VRB06KT 10SM TS SCT025CB BKN050 BKN160 33/26 A3001 RMK AO2 LTG DSNT ALQDS TSB50 SLP162 OCNL LTGIC W TS W MOV SE T03280256
KTLH 111650Z VRB05KT 10SM TS SCT025CB BKN050 BKN160 33/26 A3002 RMK AO2 LTG DSNT ALQDS TSB50 OCNL LTGIC W TS W MOV SE
KTLH 111553Z 36005KT 10SM FEW030TCU BKN130 31/26 A3005 RMK AO2 LTG DSNT W SLP174 TCU W T03110256
KTLH 111453Z 33005KT 10SM FEW040 FEW065 BKN120 BKN250 29/26 A3005 RMK AO2 SLP176 T02890256 52008
KTLH 111353Z 00000KT 10SM FEW040 FEW080 SCT120 BKN250 28/26 A3005 RMK AO2 SLP173 CB DSNT SW T02780256
KTLH 111253Z 00000KT 10SM FEW045 FEW090 SCT150 BKN200 26/24 A3004 RMK AO2 SLP170 TCU DSNT SE AND SW T02560244
KTLH 111153Z 00000KT 10SM FEW045 SCT085 SCT110 BKN250 23/23 A3003 RMK AO2 SLP168 CB DSNT SE 70048 T02330233 10244 20233 53009
KTLH 111053Z COR 00000KT 10SM FEW040 SCT090 BKN160 23/23 A3002 RMK AO2 SLP163 OCNL LTGIC DSNT S CB DSNT S T02330233
KTLH 110953Z 00000KT 10SM FEW040 SCT060 BKN120 23/23 A3000 RMK AO2 SLP157 OCNL LTGIC DSNT S T02330233
KTLH 110853Z 00000KT 10SM CLR 24/24 A3000 RMK AO2 SLP158 T02390239 58004 $
KTLH 110753Z 34003KT 10SM CLR 24/24 A3002 RMK AO2 SLP163 T02390239 $
KTLH 110653Z 36004KT 10SM CLR 24/24 A3001 RMK AO2 SLP162 T02440244 $
KTLH 110553Z 00000KT 10SM CLR 24/24 A3001 RMK AO2 SLP162 60000 T02440244 10283 20244 58013 $
KTLH 110453Z 00000KT 10SM CLR 24/24 A3004 RMK AO2 SLP171 T02440244 403440233 $
KTLH 110353Z 00000KT 10SM CLR 24/24 A3004 RMK AO2 SLP172 T02440244 $
KTLH 110253Z 01003KT 10SM FEW070 25/24 A3005 RMK AO2 SLP176 60000 T02500244 53013 $
KTLH 110153Z 00000KT 10SM FEW045 26/24 A3002 RMK AO2 SLP166 T02560244 $
KTLH 110053Z 07004KT 10SM FEW030 BKN110 26/24 A3002 RMK AO2 RAB18E44 TSE47 SLP163 P0000 T02560239 $
KTLH 110048Z 00000KT 10SM FEW030 BKN110 26/24 A3002 RMK AO2 RAB18E44 TSE47 P0000 $
KTLH 102353Z 10SM TS FEW040CB OVC180 28/26 A3004 RMK AO2 LTG DSNT N AND NW TSB2259 SLP171 OCNL LTGICCG NW-N TS NW-N MOV S 60048 T02830256 10339 20239 53006 $
KTLH 102300Z 15005KT 10SM TS FEW040CB SCT090 OVC220 29/25 A3002 RMK AO2 LTG DSNT NW-NE TSB2259 OCNL LTGIC NW-N TS NW-N MOV S T02940250 $
KTLH 102253Z 17006KT 10SM FEW050 SCT090 OVC220 29/24 A3002 RMK AO2 LTG DSNT NW-NE SLP165 T02940244 $
KTLH 102153Z 22006KT 10SM FEW045 BKN100 29/24 A3002 RMK AO2 SLP163 T02940244 $
KTLH 102053Z 19005KT 10SM SCT040 BKN120 OVC250 27/24 A3002 RMK AO2 SLP165 60048 T02720244 58019 $
KTLH 101953Z 00000KT 10SM SCT040 BKN090 OVC250 26/26 A3005 RMK AO2 PK WND 18029/1902 LTG DSNT N AND E RAE22 TSE44 SLP173 P0046 T02610261 $
KTLH 101946Z 00000KT 10SM SCT040 BKN090 OVC250 26/25 A3005 RMK AO2 PK WND 18029/1902 LTG DSNT E RAE22 TSE44 P0046 T02610256 $
KTLH 101919Z 17011G25KT 5SM -TSRA BR BKN040CB 24/24 A3008 RMK AO2 PK WND 18029/1902 LTG DSNT E-S OCNL LTGIC SE-S TS SE-S MOV E P0045 T02390239 $
KTLH 101915Z 17017G25KT 2SM TSRA BR BKN040CB 24/24 A3009 RMK AO2 PK WND 18029/1902 LTG DSNT E-S OCNL LTGIC OHD-SE-S TS OHD-SE-S MOV E P0045 T02390239 $
KTLH 101907Z 19017G29KT 1/2SM +TSRA FG BKN045CB 24/24 A3009 RMK AO2 PK WND 18029/1902 LTG DSNT E-S OCNL LTGIC OHD-S-SE TS OHD-S-SE MOV E P0037 T02440244 $
KTLH 101900Z 18021G29KT 2SM +TSRA BR BKN045CB 26/25 A3010 RMK AO2 PK WND 18029/1857 LTG DSNT SE-SW PRESRR OCNL LTGIC SE-S-SW-W TS SE-S-SW-W MOV E T02560250 PNO $
KTLH 101853Z 19007G16KT 160V230 10SM TSRA BKN045CB 29/24 A3009 RMK AO2 LTG DSNT S AND SW RAB44 TSB47 SLP187 OCNL LTGIC S-SW-W TS S-SW-W MOV E P0002 T02890244
KTLH 101847Z 17010KT 130V220 2SM -TSRA BKN045CB 31/24 A3009 RMK AO2 LTG DSNT N AND S AND SW RAB44 TSB47 TCU ALQDS P0000